PWSweather.com
Personal Weather Stations
Station Observations
SD92115WX
El Cerrito Stoneybluff, San Diego, CA 92115

El Cerrito StoneybluffSan Diego, CA 92115

Lat: 32.754096, Lon: -117.066705

Elevation: 420

Station Type: Davis Vantage Vue

http://stoneybluff.com

Latest ConditionsUpdated 3:36:28 PM PDT Sunday, Sep 24, 2017
Currently Today's Max Today's Min Today's Average
Temperature 82.0°F27.8°C 84.0°F28.9°C 53.1°F11.7°C 65.6°F18.7°C
Dew Point 49.3°F9.6°C 55.0°F12.8°C 40.6°F4.8°C 50.8°F10.4°C
Winds 5.6 mph WNW9.0 kmh WNW 8.7 mph WSW14.0 kmh WSW - 1.5 mph 2.4 kmh
Wind Gusts 10.5 mph16.9 kmh 14.8 mph23.8 kmh - -
Humidity 32% 91% 22% 66%
Pressure 29.74 in1007.1 mb 29.84 in1010.5 mb 29.74 in1007.1 mb -
Hour Temp Dew Point Humidity Winds Wind Gusts Pressure Precip Precip Rate Daily Precip Total
03:36 PM 82.0°F27.8°C 49.3°F9.6°C 32% 5.6 mph WNW9.0 kmh WNW 10.5 mph16.9 kmh 29.74 in1007.1 mb 0.00 in0.0 mm 0.00 in0.0 mm 0.00 in0.0 mm
03:31 PM 81.9°F27.7°C 50.0°F10.0°C 33% 5.8 mph NW9.3 kmh NW 9.6 mph15.4 kmh 29.74 in1007.1 mb 0.00 in0.0 mm 0.00 in0.0 mm 0.00 in0.0 mm
03:26 PM 81.3°F27.4°C 49.5°F9.7°C 33% 5.6 mph NW9.0 kmh NW 12.8 mph20.6 kmh 29.74 in1007.1 mb 0.00 in0.0 mm 0.00 in0.0 mm 0.00 in0.0 mm
03:21 PM 82.2°F27.9°C 49.5°F9.7°C 32% 6.5 mph NW10.5 kmh NW 12.8 mph20.6 kmh 29.74 in1007.1 mb 0.00 in0.0 mm 0.00 in0.0 mm 0.00 in0.0 mm
03:16 PM 82.2°F27.9°C 48.6°F9.2°C 31% 3.8 mph WSW6.1 kmh WSW 10.5 mph16.9 kmh 29.74 in1007.1 mb 0.00 in0.0 mm 0.00 in0.0 mm 0.00 in0.0 mm
03:11 PM 81.9°F27.7°C 48.2°F9.0°C 31% 6.5 mph WNW10.5 kmh WNW 13.9 mph22.4 kmh 29.74 in1007.1 mb 0.00 in0.0 mm 0.00 in0.0 mm 0.00 in0.0 mm
03:06 PM 82.6°F28.1°C 46.2°F7.9°C 28% 5.4 mph WNW8.7 kmh WNW 10.5 mph16.9 kmh 29.74 in1007.1 mb 0.00 in0.0 mm 0.00 in0.0 mm 0.00 in0.0 mm
03:01 PM 82.6°F28.1°C 48.0°F8.9°C 30% 5.4 mph W8.7 kmh W 11.6 mph18.7 kmh 29.74 in1007.1 mb 0.00 in0.0 mm 0.00 in0.0 mm 0.00 in0.0 mm
02:56 PM 82.4°F28.0°C 46.0°F7.8°C 28% 5.6 mph NW9.0 kmh NW 12.8 mph20.6 kmh 29.74 in1007.1 mb 0.00 in0.0 mm 0.00 in0.0 mm 0.00 in0.0 mm
02:51 PM 82.4°F28.0°C 44.1°F6.7°C 26% 8.7 mph WSW14.0 kmh WSW 13.9 mph22.4 kmh 29.74 in1007.1 mb 0.00 in0.0 mm 0.00 in0.0 mm 0.00 in0.0 mm
02:46 PM 82.6°F28.1°C 45.1°F7.3°C 27% 4.9 mph WNW7.9 kmh WNW 11.6 mph18.7 kmh 29.75 in1007.5 mb 0.00 in0.0 mm 0.00 in0.0 mm 0.00 in0.0 mm
02:41 PM 82.6°F28.1°C 43.2°F6.2°C 25% 7.4 mph NW11.9 kmh NW 13.9 mph22.4 kmh 29.75 in1007.5 mb 0.00 in0.0 mm 0.00 in0.0 mm 0.00 in0.0 mm
02:36 PM 82.8°F28.2°C 42.3°F5.7°C 24% 7.6 mph NW12.2 kmh NW 12.8 mph20.6 kmh 29.75 in1007.5 mb 0.00 in0.0 mm 0.00 in0.0 mm 0.00 in0.0 mm
02:31 PM 83.5°F28.6°C 40.6°F4.8°C 22% 7.2 mph W11.6 kmh W 12.8 mph20.6 kmh 29.75 in1007.5 mb 0.00 in0.0 mm 0.00 in0.0 mm 0.00 in0.0 mm
02:26 PM 83.8°F28.8°C 44.2°F6.8°C 25% 5.4 mph NW8.7 kmh NW 9.6 mph15.4 kmh 29.75 in1007.5 mb 0.00 in0.0 mm 0.00 in0.0 mm 0.00 in0.0 mm
02:21 PM 82.9°F28.3°C 43.5°F6.4°C 25% 6.7 mph NW10.8 kmh NW 11.6 mph18.7 kmh 29.75 in1007.5 mb 0.00 in0.0 mm 0.00 in0.0 mm 0.00 in0.0 mm
02:16 PM 83.7°F28.7°C 44.1°F6.7°C 25% 7.4 mph SW11.9 kmh SW 13.9 mph22.4 kmh 29.75 in1007.5 mb 0.00 in0.0 mm 0.00 in0.0 mm 0.00 in0.0 mm
02:11 PM 84.0°F28.9°C 45.5°F7.5°C 26% 4.7 mph NW7.6 kmh NW 10.5 mph16.9 kmh 29.75 in1007.5 mb 0.00 in0.0 mm 0.00 in0.0 mm 0.00 in0.0 mm
02:06 PM 83.1°F28.4°C 47.7°F8.7°C 29% 6.7 mph WNW10.8 kmh WNW 12.8 mph20.6 kmh 29.75 in1007.5 mb 0.00 in0.0 mm 0.00 in0.0 mm 0.00 in0.0 mm
02:01 PM 82.9°F28.3°C 47.5°F8.6°C 29% 5.8 mph NW9.3 kmh NW 12.8 mph20.6 kmh 29.75 in1007.5 mb 0.00 in0.0 mm 0.00 in0.0 mm 0.00 in0.0 mm
01:56 PM 82.9°F28.3°C 46.4°F8.0°C 28% 7.4 mph WSW11.9 kmh WSW 10.5 mph16.9 kmh 29.76 in1007.8 mb 0.00 in0.0 mm 0.00 in0.0 mm 0.00 in0.0 mm
01:51 PM 83.3°F28.5°C 48.6°F9.2°C 30% 6.5 mph NW10.5 kmh NW 10.5 mph16.9 kmh 29.76 in1007.8 mb 0.00 in0.0 mm 0.00 in0.0 mm 0.00 in0.0 mm
01:46 PM 82.8°F28.2°C 49.1°F9.5°C 31% 6.5 mph W10.5 kmh W 11.6 mph18.7 kmh 29.76 in1007.8 mb 0.00 in0.0 mm 0.00 in0.0 mm 0.00 in0.0 mm
01:41 PM 82.8°F28.2°C 50.7°F10.4°C 33% 6.7 mph WSW10.8 kmh WSW 12.8 mph20.6 kmh 29.76 in1007.8 mb 0.00 in0.0 mm 0.00 in0.0 mm 0.00 in0.0 mm
01:36 PM 82.0°F27.8°C 48.4°F9.1°C 31% 6.0 mph S9.7 kmh S 10.5 mph16.9 kmh 29.76 in1007.8 mb 0.00 in0.0 mm 0.00 in0.0 mm 0.00 in0.0 mm
01:31 PM 82.0°F27.8°C 46.6°F8.1°C 29% 4.5 mph WSW7.2 kmh WSW 11.6 mph18.7 kmh 29.77 in1008.1 mb 0.00 in0.0 mm 0.00 in0.0 mm 0.00 in0.0 mm
01:26 PM 82.9°F28.3°C 45.5°F7.5°C 27% 5.4 mph W8.7 kmh W 9.6 mph15.4 kmh 29.77 in1008.1 mb 0.00 in0.0 mm 0.00 in0.0 mm 0.00 in0.0 mm
01:21 PM 82.9°F28.3°C 45.5°F7.5°C 27% 6.5 mph NW10.5 kmh NW 10.5 mph16.9 kmh 29.77 in1008.1 mb 0.00 in0.0 mm 0.00 in0.0 mm 0.00 in0.0 mm
01:16 PM 82.9°F28.3°C 43.5°F6.4°C 25% 3.4 mph WNW5.5 kmh WNW 9.6 mph15.4 kmh 29.77 in1008.1 mb 0.00 in0.0 mm 0.00 in0.0 mm 0.00 in0.0 mm
01:11 PM 82.6°F28.1°C 43.2°F6.2°C 25% 8.3 mph W13.4 kmh W 14.8 mph23.8 kmh 29.77 in1008.1 mb 0.00 in0.0 mm 0.00 in0.0 mm 0.00 in0.0 mm
01:06 PM 82.4°F28.0°C 43.0°F6.1°C 25% 5.6 mph WNW9.0 kmh WNW 9.6 mph15.4 kmh 29.78 in1008.5 mb 0.00 in0.0 mm 0.00 in0.0 mm 0.00 in0.0 mm
01:01 PM 82.4°F28.0°C 43.0°F6.1°C 25% 3.6 mph W5.8 kmh W 8.5 mph13.7 kmh 29.78 in1008.5 mb 0.00 in0.0 mm 0.00 in0.0 mm 0.00 in0.0 mm
12:56 PM 82.0°F27.8°C 41.7°F5.4°C 24% 4.5 mph NNW7.2 kmh NNW 9.6 mph15.4 kmh 29.78 in1008.5 mb 0.00 in0.0 mm 0.00 in0.0 mm 0.00 in0.0 mm
12:51 PM 82.0°F27.8°C 40.6°F4.8°C 23% 5.6 mph NW9.0 kmh NW 10.5 mph16.9 kmh 29.78 in1008.5 mb 0.00 in0.0 mm 0.00 in0.0 mm 0.00 in0.0 mm
12:46 PM 81.5°F27.5°C 44.2°F6.8°C 27% 4.3 mph WNW6.9 kmh WNW 7.4 mph11.9 kmh 29.78 in1008.5 mb 0.00 in0.0 mm 0.00 in0.0 mm 0.00 in0.0 mm
12:41 PM 81.3°F27.4°C 45.1°F7.3°C 28% 3.4 mph NNW5.5 kmh NNW 8.5 mph13.7 kmh 29.78 in1008.5 mb 0.00 in0.0 mm 0.00 in0.0 mm 0.00 in0.0 mm
12:36 PM 81.7°F27.6°C 46.4°F8.0°C 29% 2.5 mph WSW4.0 kmh WSW 7.4 mph11.9 kmh 29.78 in1008.5 mb 0.00 in0.0 mm 0.00 in0.0 mm 0.00 in0.0 mm
12:31 PM 81.3°F27.4°C 47.8°F8.8°C 31% 3.4 mph WNW5.5 kmh WNW 8.5 mph13.7 kmh 29.79 in1008.8 mb 0.00 in0.0 mm 0.00 in0.0 mm 0.00 in0.0 mm
12:26 PM 80.8°F27.1°C 48.2°F9.0°C 32% 4.3 mph SW6.9 kmh SW 11.6 mph18.7 kmh 29.79 in1008.8 mb 0.00 in0.0 mm 0.00 in0.0 mm 0.00 in0.0 mm
12:21 PM 81.0°F27.2°C 49.1°F9.5°C 33% 4.7 mph WNW7.6 kmh WNW 7.4 mph11.9 kmh 29.80 in1009.1 mb 0.00 in0.0 mm 0.00 in0.0 mm 0.00 in0.0 mm
12:16 PM 80.8°F27.1°C 48.2°F9.0°C 32% 4.0 mph WNW6.4 kmh WNW 8.5 mph13.7 kmh 29.80 in1009.1 mb 0.00 in0.0 mm 0.00 in0.0 mm 0.00 in0.0 mm
12:11 PM 80.2°F26.8°C 50.2°F10.1°C 35% 5.1 mph SW8.2 kmh SW 8.5 mph13.7 kmh 29.79 in1008.8 mb 0.00 in0.0 mm 0.00 in0.0 mm 0.00 in0.0 mm
12:06 PM 80.4°F26.9°C 46.9°F8.3°C 31% 2.0 mph NW3.2 kmh NW 6.3 mph10.1 kmh 29.80 in1009.1 mb 0.00 in0.0 mm 0.00 in0.0 mm 0.00 in0.0 mm
12:01 PM 80.8°F27.1°C 48.2°F9.0°C 32% 3.6 mph W5.8 kmh W 6.3 mph10.1 kmh 29.80 in1009.1 mb 0.00 in0.0 mm 0.00 in0.0 mm 0.00 in0.0 mm
11:56 AM 79.9°F26.6°C 47.3°F8.5°C 32% 1.8 mph NNE2.9 kmh NNE 6.3 mph10.1 kmh 29.80 in1009.1 mb 0.00 in0.0 mm 0.00 in0.0 mm 0.00 in0.0 mm
11:51 AM 79.2°F26.2°C 48.4°F9.1°C 34% 1.1 mph NW1.8 kmh NW 4.3 mph6.9 kmh 29.80 in1009.1 mb 0.00 in0.0 mm 0.00 in0.0 mm 0.00 in0.0 mm
11:46 AM 79.2°F26.2°C 46.8°F8.2°C 32% 2.5 mph NW4.0 kmh NW 7.4 mph11.9 kmh 29.80 in1009.1 mb 0.00 in0.0 mm 0.00 in0.0 mm 0.00 in0.0 mm
11:41 AM 79.2°F26.2°C 49.1°F9.5°C 35% 2.7 mph WNW4.3 kmh WNW 5.4 mph8.7 kmh 29.81 in1009.5 mb 0.00 in0.0 mm 0.00 in0.0 mm 0.00 in0.0 mm
11:36 AM 79.2°F26.2°C 49.8°F9.9°C 36% 3.1 mph NW5.0 kmh NW 7.4 mph11.9 kmh 29.81 in1009.5 mb 0.00 in0.0 mm 0.00 in0.0 mm 0.00 in0.0 mm
11:31 AM 79.0°F26.1°C 51.3°F10.7°C 38% 1.8 mph W2.9 kmh W 7.4 mph11.9 kmh 29.81 in1009.5 mb 0.00 in0.0 mm 0.00 in0.0 mm 0.00 in0.0 mm
11:26 AM 78.6°F25.9°C 51.6°F10.9°C 39% 1.8 mph NNW2.9 kmh NNW 6.3 mph10.1 kmh 29.81 in1009.5 mb 0.00 in0.0 mm 0.00 in0.0 mm 0.00 in0.0 mm
11:21 AM 77.7°F25.4°C 50.0°F10.0°C 38% 1.6 mph WSW2.6 kmh WSW 7.4 mph11.9 kmh 29.81 in1009.5 mb 0.00 in0.0 mm 0.00 in0.0 mm 0.00 in0.0 mm
11:16 AM 77.5°F25.3°C 50.0°F10.0°C 38% 1.8 mph NW2.9 kmh NW 5.4 mph8.7 kmh 29.81 in1009.5 mb 0.00 in0.0 mm 0.00 in0.0 mm 0.00 in0.0 mm
11:11 AM 77.2°F25.1°C 50.4°F10.2°C 39% 1.6 mph NW2.6 kmh NW 3.1 mph5.0 kmh 29.82 in1009.8 mb 0.00 in0.0 mm 0.00 in0.0 mm 0.00 in0.0 mm
11:06 AM 76.5°F24.7°C 50.4°F10.2°C 40% 3.4 mph SW5.5 kmh SW 7.4 mph11.9 kmh 29.82 in1009.8 mb 0.00 in0.0 mm 0.00 in0.0 mm 0.00 in0.0 mm
11:01 AM 75.9°F24.4°C 51.3°F10.7°C 42% 0.9 mph NW1.4 kmh NW 4.3 mph6.9 kmh 29.82 in1009.8 mb 0.00 in0.0 mm 0.00 in0.0 mm 0.00 in0.0 mm
10:56 AM 75.6°F24.2°C 52.2°F11.2°C 44% 0.7 mph NNW1.1 kmh NNW 4.3 mph6.9 kmh 29.82 in1009.8 mb 0.00 in0.0 mm 0.00 in0.0 mm 0.00 in0.0 mm
10:51 AM 75.4°F24.1°C 52.0°F11.1°C 44% 1.6 mph WNW2.6 kmh WNW 5.4 mph8.7 kmh 29.82 in1009.8 mb 0.00 in0.0 mm 0.00 in0.0 mm 0.00 in0.0 mm
10:46 AM 75.2°F24.0°C 53.1°F11.7°C 46% Calm Calm 3.1 mph5.0 kmh 29.83 in1010.2 mb 0.00 in0.0 mm 0.00 in0.0 mm 0.00 in0.0 mm
10:41 AM 75.4°F24.1°C 53.2°F11.8°C 46% 2.7 mph SW4.3 kmh SW 5.4 mph8.7 kmh 29.83 in1010.2 mb 0.00 in0.0 mm 0.00 in0.0 mm 0.00 in0.0 mm
10:36 AM 75.2°F24.0°C 53.1°F11.7°C 46% 0.4 mph NW0.6 kmh NW 3.1 mph5.0 kmh 29.83 in1010.2 mb 0.00 in0.0 mm 0.00 in0.0 mm 0.00 in0.0 mm
10:31 AM 74.8°F23.8°C 53.8°F12.1°C 48% 1.1 mph SE1.8 kmh SE 3.1 mph5.0 kmh 29.83 in1010.2 mb 0.00 in0.0 mm 0.00 in0.0 mm 0.00 in0.0 mm
10:26 AM 74.5°F23.6°C 54.1°F12.3°C 49% Calm Calm -- 29.83 in1010.2 mb 0.00 in0.0 mm 0.00 in0.0 mm 0.00 in0.0 mm
10:21 AM 73.9°F23.3°C 53.6°F12.0°C 49% Calm Calm 3.1 mph5.0 kmh 29.83 in1010.2 mb 0.00 in0.0 mm 0.00 in0.0 mm 0.00 in0.0 mm
10:16 AM 73.2°F22.9°C 54.0°F12.2°C 51% Calm Calm 1.1 mph1.8 kmh 29.83 in1010.2 mb 0.00 in0.0 mm 0.00 in0.0 mm 0.00 in0.0 mm
10:11 AM 72.3°F22.4°C 53.2°F11.8°C 51% Calm Calm 2.0 mph3.2 kmh 29.83 in1010.2 mb 0.00 in0.0 mm 0.00 in0.0 mm 0.00 in0.0 mm
10:06 AM 72.0°F22.2°C 52.3°F11.3°C 50% 0.4 mph E0.6 kmh E 2.0 mph3.2 kmh 29.83 in1010.2 mb 0.00 in0.0 mm 0.00 in0.0 mm 0.00 in0.0 mm
10:01 AM 71.4°F21.9°C 54.5°F12.5°C 55% 0.2 mph W0.3 kmh W 1.1 mph1.8 kmh 29.83 in1010.2 mb 0.00 in0.0 mm 0.00 in0.0 mm 0.00 in0.0 mm
09:56 AM 71.1°F21.7°C 55.0°F12.8°C 57% 0.4 mph SW0.6 kmh SW 2.0 mph3.2 kmh 29.83 in1010.2 mb 0.00 in0.0 mm 0.00 in0.0 mm 0.00 in0.0 mm
09:51 AM 70.3°F21.3°C 54.3°F12.4°C 57% Calm Calm 2.0 mph3.2 kmh 29.83 in1010.2 mb 0.00 in0.0 mm 0.00 in0.0 mm 0.00 in0.0 mm
09:46 AM 70.2°F21.2°C 54.7°F12.6°C 58% Calm Calm 2.0 mph3.2 kmh 29.83 in1010.2 mb 0.00 in0.0 mm 0.00 in0.0 mm 0.00 in0.0 mm
09:41 AM 69.6°F20.9°C 54.7°F12.6°C 59% Calm Calm 1.1 mph1.8 kmh 29.83 in1010.2 mb 0.00 in0.0 mm 0.00 in0.0 mm 0.00 in0.0 mm
09:36 AM 68.7°F20.4°C 54.7°F12.6°C 61% Calm Calm 1.1 mph1.8 kmh 29.83 in1010.2 mb 0.00 in0.0 mm 0.00 in0.0 mm 0.00 in0.0 mm
09:31 AM 68.2°F20.1°C 55.0°F12.8°C 63% Calm Calm 1.1 mph1.8 kmh 29.83 in1010.2 mb 0.00 in0.0 mm 0.00 in0.0 mm 0.00 in0.0 mm
09:26 AM 67.3°F19.6°C 55.0°F12.8°C 65% Calm Calm 1.1 mph1.8 kmh 29.83 in1010.2 mb 0.00 in0.0 mm 0.00 in0.0 mm 0.00 in0.0 mm
09:21 AM 66.9°F19.4°C 54.3°F12.4°C 64% Calm Calm 1.1 mph1.8 kmh 29.83 in1010.2 mb 0.00 in0.0 mm 0.00 in0.0 mm 0.00 in0.0 mm
09:16 AM 66.9°F19.4°C 54.9°F12.7°C 65% Calm Calm 1.1 mph1.8 kmh 29.83 in1010.2 mb 0.00 in0.0 mm 0.00 in0.0 mm 0.00 in0.0 mm
09:11 AM 65.8°F18.8°C 54.5°F12.5°C 67% Calm Calm -- 29.83 in1010.2 mb 0.00 in0.0 mm 0.00 in0.0 mm 0.00 in0.0 mm
09:06 AM 64.9°F18.3°C 54.1°F12.3°C 68% Calm Calm -- 29.83 in1010.2 mb 0.00 in0.0 mm 0.00 in0.0 mm 0.00 in0.0 mm
09:01 AM 64.4°F18.0°C 54.0°F12.2°C 69% Calm Calm -- 29.83 in1010.2 mb 0.00 in0.0 mm 0.00 in0.0 mm 0.00 in0.0 mm
08:56 AM 63.7°F17.6°C 53.8°F12.1°C 70% Calm Calm -- 29.83 in1010.2 mb 0.00 in0.0 mm 0.00 in0.0 mm 0.00 in0.0 mm
08:51 AM 62.6°F17.0°C 53.1°F11.7°C 71% Calm Calm -- 29.83 in1010.2 mb 0.00 in0.0 mm 0.00 in0.0 mm 0.00 in0.0 mm
08:46 AM 62.1°F16.7°C 52.9°F11.6°C 72% Calm Calm 2.0 mph3.2 kmh 29.84 in1010.5 mb 0.00 in0.0 mm 0.00 in0.0 mm 0.00 in0.0 mm
08:41 AM 61.5°F16.4°C 52.7°F11.5°C 73% Calm Calm 1.1 mph1.8 kmh 29.83 in1010.2 mb 0.00 in0.0 mm 0.00 in0.0 mm 0.00 in0.0 mm
08:36 AM 61.0°F16.1°C 52.3°F11.3°C 73% 0.4 mph ENE0.6 kmh ENE 2.0 mph3.2 kmh 29.84 in1010.5 mb 0.00 in0.0 mm 0.00 in0.0 mm 0.00 in0.0 mm
08:31 AM 60.4°F15.8°C 52.5°F11.4°C 75% Calm Calm 1.1 mph1.8 kmh 29.83 in1010.2 mb 0.00 in0.0 mm 0.00 in0.0 mm 0.00 in0.0 mm
08:26 AM 60.1°F15.6°C 52.5°F11.4°C 76% Calm Calm 2.0 mph3.2 kmh 29.83 in1010.2 mb 0.00 in0.0 mm 0.00 in0.0 mm 0.00 in0.0 mm
08:21 AM 59.5°F15.3°C 52.3°F11.3°C 77% 0.4 mph E0.6 kmh E 2.0 mph3.2 kmh 29.83 in1010.2 mb 0.00 in0.0 mm 0.00 in0.0 mm 0.00 in0.0 mm
08:16 AM 59.4°F15.2°C 52.2°F11.2°C 77% Calm Calm -- 29.83 in1010.2 mb 0.00 in0.0 mm 0.00 in0.0 mm 0.00 in0.0 mm
08:11 AM 59.2°F15.1°C 52.3°F11.3°C 78% Calm Calm -- 29.83 in1010.2 mb 0.00 in0.0 mm 0.00 in0.0 mm 0.00 in0.0 mm
08:06 AM 59.0°F15.0°C 52.5°F11.4°C 79% Calm Calm 1.1 mph1.8 kmh 29.83 in1010.2 mb 0.00 in0.0 mm 0.00 in0.0 mm 0.00 in0.0 mm
08:01 AM 58.6°F14.8°C 52.5°F11.4°C 80% Calm Calm 3.1 mph5.0 kmh 29.83 in1010.2 mb 0.00 in0.0 mm 0.00 in0.0 mm 0.00 in0.0 mm
07:56 AM 57.9°F14.4°C 52.5°F11.4°C 82% Calm Calm 3.1 mph5.0 kmh 29.83 in1010.2 mb 0.00 in0.0 mm 0.00 in0.0 mm 0.00 in0.0 mm
07:51 AM 57.6°F14.2°C 52.7°F11.5°C 84% Calm Calm 1.1 mph1.8 kmh 29.82 in1009.8 mb 0.00 in0.0 mm 0.00 in0.0 mm 0.00 in0.0 mm
07:46 AM 57.0°F13.9°C 52.5°F11.4°C 85% Calm Calm 2.0 mph3.2 kmh 29.83 in1010.2 mb 0.00 in0.0 mm 0.00 in0.0 mm 0.00 in0.0 mm
07:41 AM 56.7°F13.7°C 52.5°F11.4°C 86% 0.2 mph E0.3 kmh E 2.0 mph3.2 kmh 29.82 in1009.8 mb 0.00 in0.0 mm 0.00 in0.0 mm 0.00 in0.0 mm
07:36 AM 56.3°F13.5°C 52.9°F11.6°C 88% 0.4 mph E0.6 kmh E 2.0 mph3.2 kmh 29.82 in1009.8 mb 0.00 in0.0 mm 0.00 in0.0 mm 0.00 in0.0 mm
07:31 AM 55.8°F13.2°C 52.5°F11.4°C 89% Calm Calm -- 29.82 in1009.8 mb 0.00 in0.0 mm 0.00 in0.0 mm 0.00 in0.0 mm
07:26 AM 55.0°F12.8°C 52.5°F11.4°C 91% Calm Calm -- 29.82 in1009.8 mb 0.00 in0.0 mm 0.00 in0.0 mm 0.00 in0.0 mm
07:21 AM 54.1°F12.3°C 51.6°F10.9°C 91% Calm Calm 1.1 mph1.8 kmh 29.82 in1009.8 mb 0.00 in0.0 mm 0.00 in0.0 mm 0.00 in0.0 mm
07:16 AM 53.8°F12.1°C 51.3°F10.7°C 91% Calm Calm -- 29.82 in1009.8 mb 0.00 in0.0 mm 0.00 in0.0 mm 0.00 in0.0 mm
07:11 AM 53.4°F11.9°C 50.5°F10.3°C 90% Calm Calm -- 29.82 in1009.8 mb 0.00 in0.0 mm 0.00 in0.0 mm 0.00 in0.0 mm
07:06 AM 53.2°F11.8°C 50.7°F10.4°C 91% Calm Calm 1.1 mph1.8 kmh 29.82 in1009.8 mb 0.00 in0.0 mm 0.00 in0.0 mm 0.00 in0.0 mm
07:01 AM 53.1°F11.7°C 50.2°F10.1°C 90% Calm Calm -- 29.82 in1009.8 mb 0.00 in0.0 mm 0.00 in0.0 mm 0.00 in0.0 mm
06:56 AM 53.2°F11.8°C 50.4°F10.2°C 90% Calm Calm -- 29.82 in1009.8 mb 0.00 in0.0 mm 0.00 in0.0 mm 0.00 in0.0 mm
06:51 AM 53.4°F11.9°C 50.5°F10.3°C 90% Calm Calm -- 29.82 in1009.8 mb 0.00 in0.0 mm 0.00 in0.0 mm 0.00 in0.0 mm
06:46 AM 53.2°F11.8°C 50.4°F10.2°C 90% Calm Calm -- 29.81 in1009.5 mb 0.00 in0.0 mm 0.00 in0.0 mm 0.00 in0.0 mm
06:41 AM 53.4°F11.9°C 50.5°F10.3°C 90% Calm Calm -- 29.81 in1009.5 mb 0.00 in0.0 mm 0.00 in0.0 mm 0.00 in0.0 mm
06:36 AM 53.4°F11.9°C 50.5°F10.3°C 90% Calm Calm -- 29.81 in1009.5 mb 0.00 in0.0 mm 0.00 in0.0 mm 0.00 in0.0 mm
06:31 AM 53.4°F11.9°C 50.5°F10.3°C 90% Calm Calm -- 29.81 in1009.5 mb 0.00 in0.0 mm 0.00 in0.0 mm 0.00 in0.0 mm
06:26 AM 53.2°F11.8°C 50.4°F10.2°C 90% Calm Calm -- 29.80 in1009.1 mb 0.00 in0.0 mm 0.00 in0.0 mm 0.00 in0.0 mm
06:21 AM 53.2°F11.8°C 50.0°F10.0°C 89% Calm Calm -- 29.80 in1009.1 mb 0.00 in0.0 mm 0.00 in0.0 mm 0.00 in0.0 mm
06:16 AM 53.2°F11.8°C 50.4°F10.2°C 90% Calm Calm -- 29.80 in1009.1 mb 0.00 in0.0 mm 0.00 in0.0 mm 0.00 in0.0 mm
06:11 AM 53.2°F11.8°C 50.0°F10.0°C 89% Calm Calm -- 29.80 in1009.1 mb 0.00 in0.0 mm 0.00 in0.0 mm 0.00 in0.0 mm
06:06 AM 53.2°F11.8°C 50.0°F10.0°C 89% Calm Calm -- 29.80 in1009.1 mb 0.00 in0.0 mm 0.00 in0.0 mm 0.00 in0.0 mm
06:01 AM 53.2°F11.8°C 50.0°F10.0°C 89% Calm Calm -- 29.80 in1009.1 mb 0.00 in0.0 mm 0.00 in0.0 mm 0.00 in0.0 mm
05:56 AM 53.6°F12.0°C 50.2°F10.1°C 88% Calm Calm -- 29.80 in1009.1 mb 0.00 in0.0 mm 0.00 in0.0 mm 0.00 in0.0 mm
05:51 AM 54.0°F12.2°C 50.5°F10.3°C 88% Calm Calm -- 29.80 in1009.1 mb 0.00 in0.0 mm 0.00 in0.0 mm 0.00 in0.0 mm
05:46 AM 54.1°F12.3°C 50.9°F10.5°C 89% Calm Calm -- 29.79 in1008.8 mb 0.00 in0.0 mm 0.00 in0.0 mm 0.00 in0.0 mm
05:41 AM 54.5°F12.5°C 51.3°F10.7°C 89% Calm Calm -- 29.79 in1008.8 mb 0.00 in0.0 mm 0.00 in0.0 mm 0.00 in0.0 mm
05:36 AM 54.3°F12.4°C 51.1°F10.6°C 89% Calm Calm -- 29.79 in1008.8 mb 0.00 in0.0 mm 0.00 in0.0 mm 0.00 in0.0 mm
05:31 AM 54.3°F12.4°C 51.1°F10.6°C 89% Calm Calm -- 29.79 in1008.8 mb 0.00 in0.0 mm 0.00 in0.0 mm 0.00 in0.0 mm
05:26 AM 54.3°F12.4°C 51.1°F10.6°C 89% Calm Calm -- 29.79 in1008.8 mb 0.00 in0.0 mm 0.00 in0.0 mm 0.00 in0.0 mm
05:21 AM 54.5°F12.5°C 51.3°F10.7°C 89% Calm Calm -- 29.79 in1008.8 mb 0.00 in0.0 mm 0.00 in0.0 mm 0.00 in0.0 mm
05:16 AM 54.7°F12.6°C 51.4°F10.8°C 89% Calm Calm -- 29.79 in1008.8 mb 0.00 in0.0 mm 0.00 in0.0 mm 0.00 in0.0 mm
05:11 AM 54.9°F12.7°C 51.6°F10.9°C 89% Calm Calm -- 29.78 in1008.5 mb 0.00 in0.0 mm 0.00 in0.0 mm 0.00 in0.0 mm
05:06 AM 54.7°F12.6°C 51.4°F10.8°C 89% Calm Calm -- 29.78 in1008.5 mb 0.00 in0.0 mm 0.00 in0.0 mm 0.00 in0.0 mm
05:01 AM 54.7°F12.6°C 51.4°F10.8°C 89% Calm Calm -- 29.78 in1008.5 mb 0.00 in0.0 mm 0.00 in0.0 mm 0.00 in0.0 mm
04:56 AM 54.7°F12.6°C 51.4°F10.8°C 89% Calm Calm -- 29.78 in1008.5 mb 0.00 in0.0 mm 0.00 in0.0 mm 0.00 in0.0 mm
04:51 AM 54.7°F12.6°C 51.4°F10.8°C 89% Calm Calm -- 29.78 in1008.5 mb 0.00 in0.0 mm 0.00 in0.0 mm 0.00 in0.0 mm
04:46 AM 54.7°F12.6°C 51.4°F10.8°C 89% Calm Calm -- 29.78 in1008.5 mb 0.00 in0.0 mm 0.00 in0.0 mm 0.00 in0.0 mm
04:41 AM 54.7°F12.6°C 51.4°F10.8°C 89% Calm Calm -- 29.78 in1008.5 mb 0.00 in0.0 mm 0.00 in0.0 mm 0.00 in0.0 mm
04:36 AM 54.7°F12.6°C 51.3°F10.7°C 88% Calm Calm -- 29.79 in1008.8 mb 0.00 in0.0 mm 0.00 in0.0 mm 0.00 in0.0 mm
04:31 AM 54.7°F12.6°C 51.4°F10.8°C 89% Calm Calm -- 29.78 in1008.5 mb 0.00 in0.0 mm 0.00 in0.0 mm 0.00 in0.0 mm
04:26 AM 54.7°F12.6°C 51.3°F10.7°C 88% Calm Calm -- 29.79 in1008.8 mb 0.00 in0.0 mm 0.00 in0.0 mm 0.00 in0.0 mm
04:21 AM 54.7°F12.6°C 51.3°F10.7°C 88% Calm Calm -- 29.79 in1008.8 mb 0.00 in0.0 mm 0.00 in0.0 mm 0.00 in0.0 mm
04:16 AM 54.9°F12.7°C 51.4°F10.8°C 88% Calm Calm -- 29.78 in1008.5 mb 0.00 in0.0 mm 0.00 in0.0 mm 0.00 in0.0 mm
04:11 AM 54.9°F12.7°C 51.4°F10.8°C 88% Calm Calm -- 29.79 in1008.8 mb 0.00 in0.0 mm 0.00 in0.0 mm 0.00 in0.0 mm
04:06 AM 54.9°F12.7°C 51.4°F10.8°C 88% Calm Calm -- 29.78 in1008.5 mb 0.00 in0.0 mm 0.00 in0.0 mm 0.00 in0.0 mm
04:01 AM 55.0°F12.8°C 51.6°F10.9°C 88% Calm Calm -- 29.78 in1008.5 mb 0.00 in0.0 mm 0.00 in0.0 mm 0.00 in0.0 mm
03:56 AM 55.2°F12.9°C 51.4°F10.8°C 87% Calm Calm -- 29.78 in1008.5 mb 0.00 in0.0 mm 0.00 in0.0 mm 0.00 in0.0 mm
03:51 AM 55.4°F13.0°C 52.0°F11.1°C 88% Calm Calm -- 29.78 in1008.5 mb 0.00 in0.0 mm 0.00 in0.0 mm 0.00 in0.0 mm
03:46 AM 55.6°F13.1°C 52.2°F11.2°C 88% Calm Calm -- 29.78 in1008.5 mb 0.00 in0.0 mm 0.00 in0.0 mm 0.00 in0.0 mm
03:41 AM 55.4°F13.0°C 52.0°F11.1°C 88% Calm Calm -- 29.78 in1008.5 mb 0.00 in0.0 mm 0.00 in0.0 mm 0.00 in0.0 mm
03:36 AM 55.2°F12.9°C 51.4°F10.8°C 87% Calm Calm -- 29.79 in1008.8 mb 0.00 in0.0 mm 0.00 in0.0 mm 0.00 in0.0 mm
03:31 AM 55.2°F12.9°C 51.4°F10.8°C 87% Calm Calm -- 29.79 in1008.8 mb 0.00 in0.0 mm 0.00 in0.0 mm 0.00 in0.0 mm
03:26 AM 55.4°F13.0°C 51.3°F10.7°C 86% Calm Calm -- 29.79 in1008.8 mb 0.00 in0.0 mm 0.00 in0.0 mm 0.00 in0.0 mm
03:21 AM 55.8°F13.2°C 52.0°F11.1°C 87% Calm Calm -- 29.78 in1008.5 mb 0.00 in0.0 mm 0.00 in0.0 mm 0.00 in0.0 mm
03:16 AM 55.9°F13.3°C 52.2°F11.2°C 87% Calm Calm -- 29.78 in1008.5 mb 0.00 in0.0 mm 0.00 in0.0 mm 0.00 in0.0 mm
03:11 AM 55.9°F13.3°C 51.8°F11.0°C 86% Calm Calm -- 29.78 in1008.5 mb 0.00 in0.0 mm 0.00 in0.0 mm 0.00 in0.0 mm
03:06 AM 56.3°F13.5°C 52.2°F11.2°C 86% Calm Calm -- 29.78 in1008.5 mb 0.00 in0.0 mm 0.00 in0.0 mm 0.00 in0.0 mm
03:01 AM 56.5°F13.6°C 52.7°F11.5°C 87% Calm Calm -- 29.79 in1008.8 mb 0.00 in0.0 mm 0.00 in0.0 mm 0.00 in0.0 mm
02:56 AM 56.3°F13.5°C 52.5°F11.4°C 87% Calm Calm 1.1 mph1.8 kmh 29.79 in1008.8 mb 0.00 in0.0 mm 0.00 in0.0 mm 0.00 in0.0 mm
02:51 AM 56.3°F13.5°C 52.9°F11.6°C 88% Calm Calm -- 29.79 in1008.8 mb 0.00 in0.0 mm 0.00 in0.0 mm 0.00 in0.0 mm
02:46 AM 56.3°F13.5°C 52.9°F11.6°C 88% Calm Calm -- 29.79 in1008.8 mb 0.00 in0.0 mm 0.00 in0.0 mm 0.00 in0.0 mm
02:41 AM 56.1°F13.4°C 52.3°F11.3°C 87% Calm Calm -- 29.79 in1008.8 mb 0.00 in0.0 mm 0.00 in0.0 mm 0.00 in0.0 mm
02:36 AM 56.3°F13.5°C 52.9°F11.6°C 88% Calm Calm -- 29.79 in1008.8 mb 0.00 in0.0 mm 0.00 in0.0 mm 0.00 in0.0 mm
02:31 AM 56.1°F13.4°C 52.7°F11.5°C 88% Calm Calm -- 29.79 in1008.8 mb 0.00 in0.0 mm 0.00 in0.0 mm 0.00 in0.0 mm
02:26 AM 56.1°F13.4°C 52.7°F11.5°C 88% Calm Calm -- 29.79 in1008.8 mb 0.00 in0.0 mm 0.00 in0.0 mm 0.00 in0.0 mm
02:21 AM 56.1°F13.4°C 52.3°F11.3°C 87% Calm Calm -- 29.79 in1008.8 mb 0.00 in0.0 mm 0.00 in0.0 mm 0.00 in0.0 mm
02:16 AM 56.3°F13.5°C 52.5°F11.4°C 87% Calm Calm -- 29.79 in1008.8 mb 0.00 in0.0 mm 0.00 in0.0 mm 0.00 in0.0 mm
02:11 AM 56.5°F13.6°C 52.3°F11.3°C 86% Calm Calm -- 29.79 in1008.8 mb 0.00 in0.0 mm 0.00 in0.0 mm 0.00 in0.0 mm
02:06 AM 56.7°F13.7°C 52.9°F11.6°C 87% Calm Calm -- 29.79 in1008.8 mb 0.00 in0.0 mm 0.00 in0.0 mm 0.00 in0.0 mm
02:01 AM 56.8°F13.8°C 52.7°F11.5°C 86% Calm Calm -- 29.79 in1008.8 mb 0.00 in0.0 mm 0.00 in0.0 mm 0.00 in0.0 mm
01:56 AM 57.0°F13.9°C 53.2°F11.8°C 87% Calm Calm -- 29.80 in1009.1 mb 0.00 in0.0 mm 0.00 in0.0 mm 0.00 in0.0 mm
01:51 AM 57.0°F13.9°C 52.9°F11.6°C 86% Calm Calm -- 29.79 in1008.8 mb 0.00 in0.0 mm 0.00 in0.0 mm 0.00 in0.0 mm
01:46 AM 57.4°F14.1°C 53.6°F12.0°C 87% Calm Calm -- 29.79 in1008.8 mb 0.00 in0.0 mm 0.00 in0.0 mm 0.00 in0.0 mm
01:41 AM 57.4°F14.1°C 53.6°F12.0°C 87% Calm Calm -- 29.80 in1009.1 mb 0.00 in0.0 mm 0.00 in0.0 mm 0.00 in0.0 mm
01:36 AM 57.6°F14.2°C 53.4°F11.9°C 86% Calm Calm -- 29.80 in1009.1 mb 0.00 in0.0 mm 0.00 in0.0 mm 0.00 in0.0 mm
01:31 AM 57.6°F14.2°C 53.4°F11.9°C 86% Calm Calm -- 29.80 in1009.1 mb 0.00 in0.0 mm 0.00 in0.0 mm 0.00 in0.0 mm
01:26 AM 57.7°F14.3°C 53.6°F12.0°C 86% Calm Calm -- 29.80 in1009.1 mb 0.00 in0.0 mm 0.00 in0.0 mm 0.00 in0.0 mm
01:21 AM 57.7°F14.3°C 54.0°F12.2°C 87% Calm Calm -- 29.79 in1008.8 mb 0.00 in0.0 mm 0.00 in0.0 mm 0.00 in0.0 mm
01:16 AM 57.7°F14.3°C 54.0°F12.2°C 87% Calm Calm -- 29.79 in1008.8 mb 0.00 in0.0 mm 0.00 in0.0 mm 0.00 in0.0 mm
01:11 AM 57.7°F14.3°C 54.0°F12.2°C 87% Calm Calm -- 29.79 in1008.8 mb 0.00 in0.0 mm 0.00 in0.0 mm 0.00 in0.0 mm
01:06 AM 57.7°F14.3°C 54.0°F12.2°C 87% Calm Calm -- 29.79 in1008.8 mb 0.00 in0.0 mm 0.00 in0.0 mm 0.00 in0.0 mm
01:01 AM 57.7°F14.3°C 53.6°F12.0°C 86% Calm Calm -- 29.79 in1008.8 mb 0.00 in0.0 mm 0.00 in0.0 mm 0.00 in0.0 mm
12:56 AM 57.7°F14.3°C 53.6°F12.0°C 86% Calm Calm -- 29.79 in1008.8 mb 0.00 in0.0 mm 0.00 in0.0 mm 0.00 in0.0 mm
12:51 AM 57.9°F14.4°C 53.8°F12.1°C 86% Calm Calm -- 29.79 in1008.8 mb 0.00 in0.0 mm 0.00 in0.0 mm 0.00 in0.0 mm
12:46 AM 57.9°F14.4°C 53.8°F12.1°C 86% Calm Calm -- 29.79 in1008.8 mb 0.00 in0.0 mm 0.00 in0.0 mm 0.00 in0.0 mm
12:41 AM 57.9°F14.4°C 53.8°F12.1°C 86% Calm Calm -- 29.79 in1008.8 mb 0.00 in0.0 mm 0.00 in0.0 mm 0.00 in0.0 mm
12:36 AM 58.3°F14.6°C 53.8°F12.1°C 85% Calm Calm -- 29.79 in1008.8 mb 0.00 in0.0 mm 0.00 in0.0 mm 0.00 in0.0 mm
12:31 AM 58.5°F14.7°C 54.0°F12.2°C 85% Calm Calm -- 29.79 in1008.8 mb 0.00 in0.0 mm 0.00 in0.0 mm 0.00 in0.0 mm
12:26 AM 58.6°F14.8°C 54.1°F12.3°C 85% Calm Calm -- 29.79 in1008.8 mb 0.00 in0.0 mm 0.00 in0.0 mm 0.00 in0.0 mm
12:21 AM 58.6°F14.8°C 54.5°F12.5°C 86% Calm Calm -- 29.79 in1008.8 mb 0.00 in0.0 mm 0.00 in0.0 mm 0.00 in0.0 mm
12:16 AM 58.6°F14.8°C 54.1°F12.3°C 85% Calm Calm -- 29.79 in1008.8 mb 0.00 in0.0 mm 0.00 in0.0 mm 0.00 in0.0 mm
12:11 AM 58.8°F14.9°C 54.3°F12.4°C 85% Calm Calm -- 29.79 in1008.8 mb 0.00 in0.0 mm 0.00 in0.0 mm 0.00 in0.0 mm
12:06 AM 58.8°F14.9°C 54.3°F12.4°C 85% Calm Calm -- 29.79 in1008.8 mb 0.00 in0.0 mm 0.00 in0.0 mm 0.00 in0.0 mm
12:01 AM 59.0°F15.0°C 54.5°F12.5°C 85% Calm Calm -- 29.79 in1008.8 mb 0.00 in0.0 mm 0.00 in0.0 mm 0.00 in0.0 mm